Time;durP1;ratioP1;P1;durP2;ratioP2;P2;SDS_P1;SDS_P2;PMS_P1;PMS_P2;Temp;Humidity;BMP_temperature;BMP_pressure;BME280_temperature;BME280_humidity;BME280_pressure;Samples;Min_cycle;Max_cycle;Signal;HPM_P1;HPM_P2
2022/03/15 00:00:34;;;;;;;6.07;3.80;;;7.90;99.90;;;;;;10516688;28;20215;-71
2022/03/15 00:05:34;;;;;;;7.73;4.93;;;7.90;99.90;;;;;;10504334;28;20214;-74
2022/03/15 00:10:35;;;;;;;7.10;4.27;;;7.90;99.90;;;;;;10514764;28;20257;-73
2022/03/15 00:15:41;;;;;;;6.47;4.10;;;7.90;99.90;;;;;;10513658;28;20914;-72
2022/03/15 00:20:41;;;;;;;5.53;3.50;;;7.90;99.90;;;;;;10496510;28;20764;-71
2022/03/15 00:25:42;;;;;;;5.53;3.50;;;7.80;99.90;;;;;;10514537;28;20260;-71
2022/03/15 00:30:43;;;;;;;5.93;3.47;;;7.80;99.90;;;;;;10513715;28;20990;-72
2022/03/15 00:35:44;;;;;;;4.73;3.40;;;7.80;99.90;;;;;;10502530;28;20597;-72
2022/03/15 00:40:44;;;;;;;5.63;3.50;;;7.80;99.90;;;;;;10527148;28;20694;-72
2022/03/15 00:45:45;;;;;;;6.83;3.27;;;7.80;99.90;;;;;;10517858;28;20227;-71
2022/03/15 00:50:46;;;;;;;5.00;3.80;;;7.70;99.90;;;;;;10484064;28;20219;-71
2022/03/15 00:55:50;;;;;;;5.60;3.37;;;7.70;99.90;;;;;;10514431;28;20219;-71
2022/03/15 01:00:51;;;;;;;4.83;3.67;;;7.70;99.90;;;;;;10492641;28;20269;-72
2022/03/15 01:05:52;;;;;;;5.60;3.50;;;7.70;99.90;;;;;;10496273;28;20215;-72
2022/03/15 01:10:53;;;;;;;4.27;3.03;;;7.70;99.90;;;;;;10508687;28;20219;-72
2022/03/15 01:15:53;;;;;;;4.77;2.80;;;7.70;99.90;;;;;;10494844;28;20217;-70
2022/03/15 01:20:55;;;;;;;4.50;2.90;;;7.70;99.90;;;;;;10496925;28;20598;-71
2022/03/15 01:25:58;;;;;;;3.67;2.70;;;7.80;99.90;;;;;;10496400;28;20210;-72
2022/03/15 01:30:59;;;;;;;4.73;3.67;;;7.70;99.90;;;;;;10515449;28;20219;-72
2022/03/15 01:35:59;;;;;;;5.63;2.90;;;7.80;99.90;;;;;;10495245;28;20578;-72
2022/03/15 01:41:00;;;;;;;5.53;2.70;;;7.90;99.90;;;;;;10513415;28;20219;-72
2022/03/15 01:46:01;;;;;;;3.83;2.60;;;7.90;99.90;;;;;;10506114;28;20705;-72
2022/03/15 01:51:02;;;;;;;4.07;2.93;;;7.90;99.90;;;;;;10496324;28;20226;-73
2022/03/15 01:56:03;;;;;;;4.13;3.00;;;8.00;99.90;;;;;;10507221;28;20211;-72
2022/03/15 02:01:04;;;;;;;5.03;3.53;;;8.00;99.90;;;;;;10502966;28;20218;-72
2022/03/15 02:06:05;;;;;;;5.17;3.00;;;7.90;99.90;;;;;;10508067;28;20222;-72
2022/03/15 02:11:08;;;;;;;5.43;3.47;;;7.80;99.90;;;;;;10518928;28;20700;-73
2022/03/15 02:16:09;;;;;;;6.07;3.00;;;7.70;99.90;;;;;;10487461;28;20223;-73
2022/03/15 02:21:10;;;;;;;6.00;3.50;;;7.70;99.90;;;;;;10512574;28;20594;-73
2022/03/15 02:26:10;;;;;;;6.87;3.40;;;7.60;99.90;;;;;;10510557;28;20221;-72
2022/03/15 02:31:20;;;;;;;5.30;3.20;;;7.70;99.90;;;;;;10500741;28;20215;-73
2022/03/15 02:36:20;;;;;;;5.33;3.37;;;7.50;99.90;;;;;;10518847;28;20221;-71
2022/03/15 02:41:21;;;;;;;4.57;3.30;;;7.50;99.90;;;;;;10514357;28;20302;-71
2022/03/15 02:46:22;;;;;;;5.43;3.27;;;7.60;99.90;;;;;;10519451;28;20222;-71
2022/03/15 02:51:22;;;;;;;5.00;3.40;;;7.60;99.90;;;;;;10511956;28;20256;-73
2022/03/15 02:56:27;;;;;;;6.20;3.63;;;7.60;99.90;;;;;;10513980;28;20254;-73
2022/03/15 03:01:27;;;;;;;5.23;3.77;;;7.60;99.90;;;;;;10518505;28;20230;-71
2022/03/15 03:06:28;;;;;;;6.33;3.40;;;7.50;99.90;;;;;;10515419;28;20223;-73
2022/03/15 03:11:29;;;;;;;6.37;3.60;;;7.50;99.90;;;;;;10517658;28;20253;-72
2022/03/15 03:16:30;;;;;;;5.33;3.67;;;7.50;99.90;;;;;;10497653;28;20235;-72
2022/03/15 03:21:31;;;;;;;6.40;3.50;;;7.50;99.90;;;;;;10516891;28;20239;-72
2022/03/15 03:26:32;;;;;;;6.07;4.30;;;7.40;99.90;;;;;;10513816;28;20222;-72
2022/03/15 03:31:33;;;;;;;6.80;3.67;;;7.50;99.90;;;;;;10520918;28;20223;-71
2022/03/15 03:36:36;;;;;;;4.67;3.10;;;7.50;99.90;;;;;;10495318;28;20597;-71
2022/03/15 03:41:37;;;;;;;6.67;3.80;;;7.50;99.90;;;;;;10518559;28;20218;-71
2022/03/15 03:46:40;;;;;;;6.37;3.73;;;7.40;99.90;;;;;;10514348;28;20235;-71
2022/03/15 03:51:41;;;;;;;6.57;3.90;;;7.40;99.90;;;;;;10504822;28;20245;-71
2022/03/15 03:56:42;;;;;;;4.70;3.47;;;7.40;99.90;;;;;;10522930;28;20226;-72
2022/03/15 04:01:43;;;;;;;5.40;3.77;;;7.40;99.90;;;;;;10513997;28;20265;-72
2022/03/15 04:06:44;;;;;;;4.73;3.67;;;7.30;99.90;;;;;;10503443;28;20225;-74
2022/03/15 04:11:45;;;;;;;7.77;4.00;;;7.20;99.90;;;;;;10509333;28;20218;-71
2022/03/15 04:16:45;;;;;;;8.23;4.57;;;7.20;99.90;;;;;;10513042;28;20631;-72
2022/03/15 04:21:46;;;;;;;10.33;4.60;;;7.10;99.90;;;;;;10513154;28;20748;-72
2022/03/15 04:26:47;;;;;;;6.87;4.60;;;7.10;99.90;;;;;;10498337;28;20720;-73
2022/03/15 04:31:48;;;;;;;6.13;4.50;;;7.20;99.90;;;;;;10513614;28;20698;-71
2022/03/15 04:36:48;;;;;;;10.60;5.30;;;7.20;99.90;;;;;;10499284;28;20222;-72
2022/03/15 04:41:50;;;;;;;9.13;5.17;;;7.20;99.90;;;;;;10510544;28;20223;-71
2022/03/15 04:46:50;;;;;;;8.60;5.00;;;7.20;99.90;;;;;;10512305;28;20249;-72
2022/03/15 04:51:51;;;;;;;8.00;4.93;;;7.10;99.90;;;;;;10510992;28;20222;-72
2022/03/15 04:56:52;;;;;;;8.63;4.80;;;7.10;99.90;;;;;;10495300;28;20218;-72
2022/03/15 05:02:03;;;;;;;7.83;5.30;;;7.10;99.90;;;;;;10516158;28;20221;-72
2022/03/15 05:07:03;;;;;;;8.43;4.90;;;7.10;99.90;;;;;;10493185;28;20288;-72
2022/03/15 05:12:06;;;;;;;8.47;4.97;;;7.10;99.90;;;;;;10498265;28;20222;-71
2022/03/15 05:17:06;;;;;;;10.80;5.13;;;7.10;99.90;;;;;;10517795;28;20273;-73
2022/03/15 05:22:07;;;;;;;9.73;5.20;;;7.10;99.90;;;;;;10507960;28;20312;-73
2022/03/15 05:27:09;;;;;;;7.30;5.07;;;7.10;99.90;;;;;;10514914;28;20462;-73
2022/03/15 05:32:09;;;;;;;6.93;4.93;;;7.00;99.90;;;;;;10505996;28;20651;-72
2022/03/15 05:37:13;;;;;;;9.10;5.80;;;7.00;99.90;;;;;;10497778;28;20314;-78
2022/03/15 05:42:17;;;;;;;12.10;5.67;;;7.00;99.90;;;;;;10514744;28;20250;-74
2022/03/15 05:47:18;;;;;;;7.90;6.10;;;7.00;99.90;;;;;;10496753;28;20582;-74
2022/03/15 05:52:19;;;;;;;12.43;6.40;;;7.00;99.90;;;;;;10522203;28;20222;-73
2022/03/15 05:57:19;;;;;;;9.40;5.57;;;6.80;99.90;;;;;;10517008;28;20596;-74
2022/03/15 06:02:20;;;;;;;10.07;6.00;;;6.80;99.90;;;;;;10504655;28;20222;-74
2022/03/15 06:07:20;;;;;;;11.40;6.53;;;6.80;99.90;;;;;;10516303;28;20301;-73
2022/03/15 06:12:23;;;;;;;12.07;6.50;;;6.80;99.90;;;;;;10511183;28;20603;-77
2022/03/15 06:17:24;;;;;;;9.13;5.87;;;6.80;99.90;;;;;;10497021;28;20249;-75
2022/03/15 06:22:25;;;;;;;10.33;6.07;;;6.80;99.90;;;;;;10512419;28;20258;-76
2022/03/15 06:27:25;;;;;;;10.33;6.07;;;6.80;99.90;;;;;;10506165;28;20707;-71
2022/03/15 06:32:26;;;;;;;11.23;5.50;;;6.90;99.90;;;;;;10518987;28;20321;-71
2022/03/15 06:37:28;;;;;;;11.67;6.33;;;7.00;99.90;;;;;;10521901;28;20764;-72
2022/03/15 06:42:29;;;;;;;9.57;5.27;;;7.20;99.90;;;;;;10500487;28;20247;-71
2022/03/15 06:47:30;;;;;;;13.43;5.00;;;7.40;99.90;;;;;;10514853;28;20352;-72
2022/03/15 06:52:31;;;;;;;11.23;5.67;;;7.50;99.90;;;;;;10517373;28;20317;-72
2022/03/15 06:57:32;;;;;;;8.33;5.10;;;7.60;99.90;;;;;;10497685;28;20286;-73
2022/03/15 07:02:33;;;;;;;9.77;4.60;;;7.70;99.90;;;;;;10512109;28;20246;-72
2022/03/15 07:07:34;;;;;;;9.67;5.17;;;7.90;99.90;;;;;;10511827;28;20310;-72
2022/03/15 07:12:37;;;;;;;5.70;4.20;;;8.00;99.90;;;;;;10500723;28;20626;-78
2022/03/15 07:53:54;;;;;;;6.60;3.57;;;9.20;99.90;;;;;;10530525;28;20241;-79
2022/03/15 08:04:13;;;;;;;6.77;4.03;;;9.30;99.90;;;;;;10387589;28;20244;-78
2022/03/15 08:09:19;;;;;;;8.63;3.93;;;9.30;99.90;;;;;;10509663;28;20408;-74
2022/03/15 08:14:20;;;;;;;8.20;4.27;;;9.60;99.90;;;;;;10509537;28;20305;-74
2022/03/15 08:19:24;;;;;;;5.77;3.73;;;10.00;99.90;;;;;;10496203;28;20225;-73
2022/03/15 08:24:25;;;;;;;5.23;3.37;;;10.10;99.90;;;;;;10510399;28;20223;-74
2022/03/15 08:29:26;;;;;;;6.53;3.50;;;10.10;99.90;;;;;;10500555;28;20506;-74
2022/03/15 08:34:28;;;;;;;7.47;3.07;;;10.10;99.90;;;;;;10502404;28;20687;-74
2022/03/15 08:39:30;;;;;;;5.67;3.07;;;10.10;99.90;;;;;;10504075;28;20593;-75
2022/03/15 08:44:31;;;;;;;6.00;3.10;;;10.30;99.90;;;;;;10493441;28;20229;-75
2022/03/15 08:49:31;;;;;;;5.53;2.87;;;10.40;99.90;;;;;;10513283;28;20227;-74
2022/03/15 08:54:42;;;;;;;7.33;3.43;;;10.60;99.90;;;;;;10510611;28;20592;-73
2022/03/15 08:59:43;;;;;;;6.60;3.37;;;10.80;99.90;;;;;;10501726;28;20219;-72
2022/03/15 09:04:44;;;;;;;4.30;2.73;;;10.90;99.90;;;;;;10497588;28;20226;-75
2022/03/15 09:09:44;;;;;;;8.27;3.00;;;10.90;99.90;;;;;;10505985;28;20796;-74
2022/03/15 09:14:45;;;;;;;4.27;2.70;;;11.00;99.90;;;;;;10495036;28;20221;-75
2022/03/15 09:19:46;;;;;;;8.90;3.90;;;11.10;99.90;;;;;;10516303;28;20223;-74
2022/03/15 09:24:47;;;;;;;8.87;4.10;;;11.20;99.90;;;;;;10495109;28;20247;-75
2022/03/15 09:29:48;;;;;;;6.77;4.20;;;11.40;99.90;;;;;;10496108;28;20226;-75
2022/03/15 09:34:49;;;;;;;5.47;3.73;;;11.60;99.90;;;;;;10497419;28;20210;-76
2022/03/15 09:39:52;;;;;;;6.27;4.10;;;11.70;99.90;;;;;;10530026;28;20214;-75
2022/03/15 09:44:55;;;;;;;8.83;4.17;;;11.80;99.90;;;;;;10514219;28;20211;-75
2022/03/15 09:49:58;;;;;;;6.10;3.70;;;11.90;99.90;;;;;;10507103;28;20225;-75
2022/03/15 09:55:01;;;;;;;6.83;3.77;;;12.00;99.90;;;;;;10516004;28;20216;-76
2022/03/15 10:00:03;;;;;;;7.20;3.90;;;11.60;99.90;;;;;;10486886;28;20280;-74
2022/03/15 10:05:04;;;;;;;7.13;3.77;;;11.50;99.90;;;;;;10495411;28;20265;-73
2022/03/15 10:10:07;;;;;;;8.23;2.80;;;11.50;99.90;;;;;;10504574;28;20222;-74
2022/03/15 10:15:16;;;;;;;5.43;2.90;;;11.60;99.90;;;;;;10487585;28;20191;-74
2022/03/15 10:20:25;;;;;;;3.90;2.90;;;11.60;99.90;;;;;;10487375;28;20220;-75
2022/03/15 10:25:27;;;;;;;5.40;3.60;;;11.60;99.90;;;;;;10495336;28;20275;-74
2022/03/15 10:30:30;;;;;;;9.70;3.90;;;11.60;99.90;;;;;;10510273;28;20258;-74
2022/03/15 10:35:36;;;;;;;7.30;3.77;;;11.50;99.90;;;;;;10497357;28;20257;-75
2022/03/15 10:40:45;;;;;;;5.10;3.73;;;11.30;99.90;;;;;;10497646;28;20223;-75
2022/03/15 10:45:50;;;;;;;8.90;4.90;;;11.10;99.90;;;;;;10512401;28;20237;-75
2022/03/15 10:50:55;;;;;;;9.27;5.67;;;11.00;99.90;;;;;;10547147;28;20257;-75
2022/03/15 10:56:12;;;;;;;11.43;5.73;;;10.90;99.90;;;;;;10527642;28;20310;-76
2022/03/15 11:01:15;;;;;;;8.77;5.90;;;10.90;99.90;;;;;;10525806;28;20249;-74
2022/03/15 11:06:30;;;;;;;9.67;6.27;;;10.80;99.90;;;;;;10492691;28;20223;-74
2022/03/15 11:11:36;;;;;;;8.13;6.53;;;10.60;99.90;;;;;;10499065;28;20272;-74
2022/03/15 11:16:38;;;;;;;10.20;6.80;;;10.40;99.90;;;;;;10499451;28;20234;-74
2022/03/15 11:21:40;;;;;;;10.30;6.63;;;10.30;99.90;;;;;;10503679;28;20218;-74
2022/03/15 11:26:44;;;;;;;8.30;5.77;;;10.30;99.90;;;;;;10516853;28;20227;-75
2022/03/15 11:31:46;;;;;;;9.90;6.33;;;10.40;99.90;;;;;;10521663;28;20208;-75
2022/03/15 11:36:49;;;;;;;11.70;6.53;;;10.50;99.90;;;;;;10516990;28;20222;-75
2022/03/15 11:41:50;;;;;;;9.00;6.50;;;10.50;99.90;;;;;;10515514;28;20246;-74
2022/03/15 11:47:25;;;;;;;10.53;6.83;;;10.30;99.90;;;;;;10511673;28;20644;-75
2022/03/15 11:53:07;;;;;;;9.30;6.90;;;10.20;99.90;;;;;;10502304;28;20683;-75
2022/03/15 11:58:10;;;;;;;9.03;6.27;;;10.20;99.90;;;;;;10493051;28;20227;-74
2022/03/15 12:03:16;;;;;;;11.90;7.07;;;10.20;99.90;;;;;;10518739;28;20293;-74
2022/03/15 12:08:19;;;;;;;12.27;7.77;;;10.20;99.90;;;;;;10518886;28;20231;-74
2022/03/15 12:13:50;;;;;;;16.30;8.37;;;10.10;99.90;;;;;;10518581;28;20221;-74
2022/03/15 12:19:15;;;;;;;10.13;6.90;;;10.10;99.90;;;;;;10526851;28;20280;-75
2022/03/15 12:24:28;;;;;;;10.67;6.70;;;10.00;99.90;;;;;;10515841;28;20218;-74
2022/03/15 12:29:36;;;;;;;10.80;7.33;;;10.00;99.90;;;;;;10481182;28;20257;-79
2022/03/15 13:12:15;;;;;;;14.40;11.00;;;8.70;99.90;;;;;;10406120;28;1079098;-78
2022/03/15 13:17:18;;;;;;;13.90;9.90;;;8.70;99.90;;;;;;10421545;28;20239;-77
2022/03/15 13:22:30;;;;;;;16.83;10.80;;;8.60;99.90;;;;;;10430740;28;20683;-77
2022/03/15 13:27:38;;;;;;;15.53;11.50;;;8.70;99.90;;;;;;10430816;28;20235;-76
2022/03/15 13:32:39;;;;;;;14.97;11.97;;;8.70;99.90;;;;;;10434733;28;20227;-72
2022/03/15 13:37:40;;;;;;;13.83;11.60;;;8.80;99.90;;;;;;10447675;28;20875;-76
2022/03/15 13:42:42;;;;;;;14.80;11.17;;;8.70;99.90;;;;;;10426335;28;20298;-76
2022/03/15 13:47:52;;;;;;;14.67;11.50;;;8.70;99.90;;;;;;10446109;28;20238;-73
2022/03/15 13:52:53;;;;;;;16.57;12.00;;;8.50;99.90;;;;;;10443706;28;20219;-75
2022/03/15 13:57:57;;;;;;;20.30;13.57;;;8.40;99.90;;;;;;10447722;28;20232;-75
2022/03/15 14:03:07;;;;;;;16.57;13.43;;;8.50;99.90;;;;;;10428385;28;20590;-75
2022/03/15 14:08:12;;;;;;;19.60;14.77;;;8.30;99.90;;;;;;10444741;28;20266;-75
2022/03/15 14:13:20;;;;;;;17.80;14.10;;;8.20;99.90;;;;;;10427592;28;20706;-75
2022/03/15 14:18:24;;;;;;;16.97;12.93;;;8.10;99.90;;;;;;10430743;28;20778;-76
2022/03/15 14:23:27;;;;;;;17.20;14.53;;;8.10;99.90;;;;;;10432743;28;20235;-74
2022/03/15 14:28:28;;;;;;;16.03;13.73;;;8.10;99.90;;;;;;10456369;28;20235;-76
2022/03/15 14:33:29;;;;;;;17.10;14.03;;;8.30;99.90;;;;;;10450286;28;20310;-75
2022/03/15 14:38:41;;;;;;;18.30;13.40;;;8.30;99.90;;;;;;10464082;28;20726;-74
2022/03/15 14:43:43;;;;;;;16.40;14.30;;;8.20;99.90;;;;;;10457301;28;20238;-75
2022/03/15 14:48:49;;;;;;;15.60;13.67;;;8.30;99.90;;;;;;10425375;28;20232;-75
2022/03/15 14:53:50;;;;;;;18.93;14.57;;;8.30;99.90;;;;;;10464783;28;20274;-76
2022/03/15 14:58:52;;;;;;;17.87;14.90;;;8.30;99.90;;;;;;10455947;28;20764;-76
2022/03/15 15:03:52;;;;;;;17.00;15.20;;;8.40;99.90;;;;;;10423871;28;20231;-74
2022/03/15 15:08:56;;;;;;;17.10;14.97;;;8.40;99.90;;;;;;10459633;28;20238;-76
2022/03/15 15:13:57;;;;;;;16.43;14.70;;;8.50;99.90;;;;;;10425793;28;20227;-73
2022/03/15 15:19:00;;;;;;;23.07;15.87;;;8.60;99.90;;;;;;10451571;28;20223;-74
2022/03/15 15:24:01;;;;;;;18.83;14.57;;;8.60;99.90;;;;;;10439066;28;21023;-73
2022/03/15 15:29:03;;;;;;;17.57;14.33;;;8.60;99.90;;;;;;10436861;28;20263;-74
2022/03/15 15:34:05;;;;;;;16.40;13.90;;;8.60;99.90;;;;;;10450790;28;20691;-75
2022/03/15 15:39:05;;;;;;;19.83;14.00;;;8.60;99.90;;;;;;10451506;28;20277;-73
2022/03/15 15:44:09;;;;;;;20.97;14.93;;;8.50;99.90;;;;;;10433128;28;20806;-74
2022/03/15 15:49:12;;;;;;;17.80;14.20;;;8.50;99.90;;;;;;10452127;28;20232;-74
2022/03/15 15:54:14;;;;;;;16.03;13.97;;;8.50;99.90;;;;;;10438753;28;20215;-74
2022/03/15 15:59:14;;;;;;;18.23;14.33;;;8.60;99.90;;;;;;10450781;28;20216;-74
2022/03/15 16:04:19;;;;;;;15.07;13.47;;;8.50;99.90;;;;;;10432389;28;20230;-74
2022/03/15 16:09:20;;;;;;;15.40;13.13;;;8.50;99.90;;;;;;10451547;28;20230;-74
2022/03/15 16:14:21;;;;;;;16.30;12.70;;;8.50;99.90;;;;;;10449434;28;20224;-74
2022/03/15 16:19:21;;;;;;;15.00;12.77;;;8.40;99.90;;;;;;10429622;28;20623;-75
2022/03/15 16:24:22;;;;;;;14.37;12.47;;;8.50;99.90;;;;;;10432781;28;20224;-74
2022/03/15 16:29:23;;;;;;;12.77;10.87;;;8.50;99.90;;;;;;10425509;28;20241;-75
2022/03/15 16:34:23;;;;;;;12.27;10.10;;;8.50;99.90;;;;;;10447743;28;20253;-75
2022/03/15 16:39:24;;;;;;;12.60;11.20;;;8.50;99.90;;;;;;10419679;28;20251;-72
2022/03/15 16:44:26;;;;;;;12.20;10.97;;;8.50;99.90;;;;;;10430327;28;20235;-73
2022/03/15 16:49:26;;;;;;;13.10;11.80;;;8.40;99.90;;;;;;10448394;28;20613;-72
2022/03/15 16:54:28;;;;;;;15.40;11.43;;;8.40;99.90;;;;;;10447099;28;20698;-72
2022/03/15 16:59:28;;;;;;;15.37;13.63;;;8.40;99.90;;;;;;10452340;28;20318;-75
2022/03/15 17:09:50;;;;;;;17.33;13.93;;;8.30;99.90;;;;;;10447685;28;20236;-74
2022/03/15 17:14:51;;;;;;;16.73;15.03;;;8.30;99.90;;;;;;10447807;28;20227;-74
2022/03/15 17:19:52;;;;;;;15.57;13.93;;;8.40;99.90;;;;;;10446059;28;20311;-73
2022/03/15 17:24:55;;;;;;;17.93;16.10;;;8.40;99.90;;;;;;10446721;28;20310;-73
2022/03/15 17:29:57;;;;;;;17.63;15.63;;;8.40;99.90;;;;;;10447932;28;20251;-75
2022/03/15 17:34:58;;;;;;;17.83;15.93;;;8.30;99.90;;;;;;10447588;28;20234;-75
2022/03/15 17:39:59;;;;;;;18.27;16.13;;;8.40;99.90;;;;;;10449176;28;20227;-74
2022/03/15 17:45:10;;;;;;;18.63;16.63;;;8.40;99.90;;;;;;10454923;28;20267;-75
2022/03/15 17:50:11;;;;;;;18.97;16.53;;;8.40;99.90;;;;;;10442915;28;20228;-71
2022/03/15 17:55:24;;;;;;;20.07;17.60;;;8.30;99.90;;;;;;10453257;28;20194;-72
2022/03/15 18:00:25;;;;;;;21.17;18.37;;;8.40;99.90;;;;;;10440805;28;20227;-72
2022/03/15 18:05:26;;;;;;;20.50;16.33;;;8.40;99.90;;;;;;10457468;28;20237;-72
2022/03/15 18:15:50;;;;;;;19.23;14.97;;;8.30;99.90;;;;;;10461058;28;20222;-73
2022/03/15 18:20:51;;;;;;;22.23;15.97;;;8.30;99.90;;;;;;10460814;28;20227;-73
2022/03/15 18:25:53;;;;;;;21.50;16.07;;;8.30;99.90;;;;;;10468664;28;20241;-74
2022/03/15 18:30:56;;;;;;;19.83;16.43;;;8.30;99.90;;;;;;10446902;28;20314;-74
2022/03/15 18:35:57;;;;;;;19.63;15.90;;;8.30;99.90;;;;;;10460049;28;20713;-74
2022/03/15 18:40:57;;;;;;;22.83;15.87;;;8.30;99.90;;;;;;10443727;28;20263;-74
2022/03/15 18:46:02;;;;;;;20.57;15.67;;;8.30;99.90;;;;;;10462277;28;20216;-74
2022/03/15 18:51:04;;;;;;;18.53;13.90;;;8.30;99.90;;;;;;10441988;28;20717;-74
2022/03/15 18:56:06;;;;;;;17.13;14.77;;;8.30;99.90;;;;;;10463124;28;20232;-72
2022/03/15 19:01:07;;;;;;;19.40;15.33;;;8.30;99.90;;;;;;10460142;28;20227;-72
2022/03/15 19:06:08;;;;;;;18.07;15.57;;;8.40;99.90;;;;;;10460175;28;20212;-74
2022/03/15 19:11:11;;;;;;;21.97;18.10;;;8.40;99.90;;;;;;10439642;28;20231;-74
2022/03/15 19:16:16;;;;;;;20.17;15.13;;;8.40;99.90;;;;;;10454510;28;20280;-74
2022/03/15 19:21:22;;;;;;;19.10;15.17;;;8.50;99.90;;;;;;10451520;28;20933;-74
2022/03/15 19:26:26;;;;;;;16.10;14.40;;;8.40;99.90;;;;;;10450415;28;20281;-73
2022/03/15 19:31:27;;;;;;;17.87;14.23;;;8.50;99.90;;;;;;10451980;28;20243;-74
2022/03/15 19:36:29;;;;;;;20.47;16.17;;;8.50;99.90;;;;;;10452829;28;20220;-73
2022/03/15 19:41:36;;;;;;;17.77;15.37;;;8.50;99.90;;;;;;10453322;28;20231;-74
2022/03/15 19:46:37;;;;;;;20.70;16.33;;;8.50;99.90;;;;;;10453407;28;20240;-74
2022/03/15 19:51:46;;;;;;;19.40;16.13;;;8.40;99.90;;;;;;10452460;28;20235;-74
2022/03/15 19:56:49;;;;;;;17.60;15.23;;;8.30;99.90;;;;;;10452765;28;20332;-74
2022/03/15 20:02:01;;;;;;;18.30;15.30;;;8.30;99.90;;;;;;10461561;28;20228;-75
2022/03/15 20:07:03;;;;;;;19.83;15.50;;;8.30;99.90;;;;;;10458146;28;20232;-74
2022/03/15 20:12:05;;;;;;;20.83;16.40;;;8.40;99.90;;;;;;10436969;28;20699;-75
2022/03/15 20:17:07;;;;;;;19.40;16.23;;;8.40;99.90;;;;;;10452257;28;20223;-74
2022/03/15 20:22:16;;;;;;;19.20;16.57;;;8.50;99.90;;;;;;10450830;28;20282;-76
2022/03/15 20:27:17;;;;;;;18.77;15.83;;;8.50;99.90;;;;;;10426627;28;20830;-75
2022/03/15 20:32:18;;;;;;;17.57;15.20;;;8.60;99.90;;;;;;10421394;28;20855;-75
2022/03/15 20:37:22;;;;;;;19.47;15.67;;;8.60;99.90;;;;;;10427523;28;20228;-76
2022/03/15 20:42:25;;;;;;;17.53;14.90;;;8.50;99.90;;;;;;10441441;28;20224;-75
2022/03/15 20:47:30;;;;;;;16.47;14.73;;;8.50;99.90;;;;;;10450498;28;20238;-73
2022/03/15 20:52:31;;;;;;;17.60;15.27;;;8.50;99.90;;;;;;10453027;28;20287;-73
2022/03/15 20:57:32;;;;;;;19.63;16.17;;;8.50;99.90;;;;;;10434917;28;20595;-73
2022/03/15 21:02:35;;;;;;;19.13;16.50;;;8.60;99.90;;;;;;10437988;28;20285;-73
2022/03/15 21:07:36;;;;;;;17.10;15.30;;;8.60;99.90;;;;;;10436702;28;20632;-72
2022/03/15 21:12:38;;;;;;;19.07;15.57;;;8.60;99.90;;;;;;10450038;28;20224;-73
2022/03/15 21:17:38;;;;;;;16.17;14.47;;;8.40;99.90;;;;;;10433937;28;20219;-73
2022/03/15 21:22:40;;;;;;;22.17;17.20;;;8.10;99.90;;;;;;10450036;28;20219;-72
2022/03/15 21:27:41;;;;;;;18.63;16.70;;;7.80;99.90;;;;;;10433133;28;20647;-71
2022/03/15 21:32:45;;;;;;;19.10;16.60;;;7.70;99.90;;;;;;10430254;28;20219;-74
2022/03/15 21:37:45;;;;;;;22.37;18.53;;;7.50;99.90;;;;;;10433439;28;20230;-72
2022/03/15 21:42:46;;;;;;;20.43;16.87;;;7.30;99.90;;;;;;10449164;28;20250;-70
2022/03/15 21:47:47;;;;;;;20.53;17.63;;;7.20;99.90;;;;;;10448227;28;20226;-70
2022/03/15 21:52:48;;;;;;;23.27;19.77;;;7.10;99.90;;;;;;10446620;28;20273;-69
2022/03/15 21:57:50;;;;;;;21.47;18.20;;;7.00;99.90;;;;;;10447457;28;20226;-70
2022/03/15 22:02:51;;;;;;;19.50;16.60;;;6.90;99.90;;;;;;10437510;28;20632;-71
2022/03/15 22:07:52;;;;;;;21.80;18.50;;;6.80;99.90;;;;;;10446876;28;20277;-72
2022/03/15 22:12:52;;;;;;;23.47;18.63;;;6.70;99.90;;;;;;10451006;28;20250;-70
2022/03/15 22:17:55;;;;;;;18.80;16.10;;;6.60;99.90;;;;;;10449364;28;20222;-71
2022/03/15 22:22:58;;;;;;;18.77;15.77;;;6.60;99.90;;;;;;10427598;28;20234;-72
2022/03/15 22:28:00;;;;;;;20.47;16.77;;;6.50;99.90;;;;;;10448950;28;20317;-72
2022/03/15 23:25:58;;;;;;;21.20;17.37;;;6.00;99.90;;;;;;10454106;28;20223;-71
2022/03/15 23:30:59;;;;;;;18.70;16.10;;;6.00;99.90;;;;;;10461260;28;20232;-72
2022/03/15 23:36:01;;;;;;;17.00;14.50;;;6.00;99.90;;;;;;10454404;28;20226;-71
2022/03/15 23:41:01;;;;;;;15.93;14.23;;;5.90;99.90;;;;;;10435377;28;20220;-69
2022/03/15 23:46:02;;;;;;;18.77;15.07;;;5.90;99.90;;;;;;10453621;28;20226;-69
2022/03/15 23:51:03;;;;;;;20.20;16.20;;;5.80;99.90;;;;;;10452185;28;20224;-70
2022/03/15 23:56:04;;;;;;;18.90;16.27;;;5.80;99.90;;;;;;10453665;28;20223;-70
